Terminal Aerodrome Forecast
Issued by NWS Lake Charles, LA

Home | Current Version | Previous Version | Text Only | Print | Product List | Glossary On
Versions: 1 2 3 4 5 6 7 8 9 10 11 12 13 14 15 16 17 18 19
000
FTUS44 KLCH 180600 AAA
TAFLCH
TAF AMD
KLCH 180636Z 1807/1906 VRB05KT P6SM OVC025
     FM180900 01006KT P6SM BKN015
      TEMPO 1811/1814 BKN007
     FM181700 01010G15KT P6SM SCT035
     FM190000 05004KT P6SM SCT250=

USA.gov is the U.S. government's official web portal to all federal, state and local government web resources and services.